Time;durP1;ratioP1;P1;durP2;ratioP2;P2;SDS_P1;SDS_P2;PMS_P1;PMS_P2;Temp;Humidity;BMP_temperature;BMP_pressure;BME280_temperature;BME280_humidity;BME280_pressure;Samples;Min_cycle;Max_cycle;Signal;HPM_P1;HPM_P2
2023/01/14 00:00:10;;;;;;;9.57;9.07;;;;;;;;;;5091318;28;20471;-70
2023/01/14 00:02:36;;;;;;;9.35;8.93;;;;;;;;;;5100687;28;20020;-70
2023/01/14 00:05:02;;;;;;;9.13;8.73;;;;;;;;;;5102612;28;20040;-68
2023/01/14 00:07:27;;;;;;;9.07;8.68;;;;;;;;;;5103242;28;20076;-69
2023/01/14 00:09:52;;;;;;;9.35;8.88;;;;;;;;;;5106492;28;20110;-70
2023/01/14 00:12:21;;;;;;;9.50;9.00;;;;;;;;;;5102228;28;20020;-69
2023/01/14 00:14:46;;;;;;;8.80;8.40;;;;;;;;;;5100829;28;20541;-70
2023/01/14 00:17:11;;;;;;;9.63;9.13;;;;;;;;;;5100824;28;20058;-69
2023/01/14 00:19:37;;;;;;;9.25;8.85;;;;;;;;;;5101356;28;20028;-69
2023/01/14 00:22:02;;;;;;;8.73;8.32;;;;;;;;;;5099249;28;20102;-69
2023/01/14 00:24:28;;;;;;;9.23;8.82;;;;;;;;;;5103297;28;20031;-70
2023/01/14 00:26:54;;;;;;;9.55;9.05;;;;;;;;;;5105370;28;20026;-70
2023/01/14 00:29:24;;;;;;;9.00;8.60;;;;;;;;;;5101438;28;20031;-70
2023/01/14 00:31:49;;;;;;;9.27;8.82;;;;;;;;;;5100737;28;20016;-69
2023/01/14 00:34:15;;;;;;;9.45;8.95;;;;;;;;;;5099763;28;20228;-70
2023/01/14 00:36:42;;;;;;;9.50;9.00;;;;;;;;;;5102629;28;20008;-69
2023/01/14 00:39:07;;;;;;;9.07;8.68;;;;;;;;;;5102964;28;20058;-69
2023/01/14 00:41:32;;;;;;;8.90;8.50;;;;;;;;;;5087120;28;20048;-69
2023/01/14 00:43:58;;;;;;;9.00;8.60;;;;;;;;;;5106387;28;20073;-70
2023/01/14 00:46:28;;;;;;;8.77;8.38;;;;;;;;;;5104812;28;20024;-71
2023/01/14 00:48:53;;;;;;;9.00;8.60;;;;;;;;;;5103480;28;20027;-70
2023/01/14 00:51:19;;;;;;;8.70;8.30;;;;;;;;;;5101364;28;20020;-70
2023/01/14 00:53:45;;;;;;;8.85;8.45;;;;;;;;;;5096106;28;20043;-70
2023/01/14 00:56:11;;;;;;;9.02;8.63;;;;;;;;;;5106405;28;20038;-70
2023/01/14 00:58:37;;;;;;;8.90;8.50;;;;;;;;;;5101704;28;20467;-69
2023/01/14 01:01:02;;;;;;;9.02;8.63;;;;;;;;;;5102089;28;20028;-70
2023/01/14 01:03:28;;;;;;;9.02;8.63;;;;;;;;;;5101716;28;20493;-70
2023/01/14 01:05:53;;;;;;;9.43;8.93;;;;;;;;;;5097142;28;20035;-70
2023/01/14 01:08:20;;;;;;;9.35;8.85;;;;;;;;;;5102231;28;20016;-69
2023/01/14 01:10:48;;;;;;;9.13;8.73;;;;;;;;;;5104445;28;20016;-70
2023/01/14 01:13:13;;;;;;;8.80;8.40;;;;;;;;;;5100889;28;20012;-70
2023/01/14 01:15:40;;;;;;;9.27;8.80;;;;;;;;;;5102473;28;20019;-69
2023/01/14 01:18:06;;;;;;;9.65;9.15;;;;;;;;;;5095193;28;20073;-69
2023/01/14 01:20:31;;;;;;;9.55;9.05;;;;;;;;;;5100159;28;20024;-69
2023/01/14 01:22:56;;;;;;;9.73;9.23;;;;;;;;;;5104015;28;20086;-69
2023/01/14 01:25:22;;;;;;;8.93;8.52;;;;;;;;;;5099716;28;20487;-68
2023/01/14 01:27:47;;;;;;;9.05;8.65;;;;;;;;;;5099833;28;20020;-69
2023/01/14 01:30:13;;;;;;;8.73;8.32;;;;;;;;;;5105180;28;20024;-69
2023/01/14 01:32:38;;;;;;;9.32;8.82;;;;;;;;;;5100948;28;20019;-70
2023/01/14 01:35:04;;;;;;;9.40;8.93;;;;;;;;;;5091843;28;20032;-68
2023/01/14 01:37:29;;;;;;;9.18;8.77;;;;;;;;;;5099590;28;20432;-69
2023/01/14 01:39:55;;;;;;;9.15;8.75;;;;;;;;;;5100558;28;20031;-69
2023/01/14 01:42:22;;;;;;;9.18;8.77;;;;;;;;;;5097936;28;20056;-69
2023/01/14 01:44:47;;;;;;;8.90;8.50;;;;;;;;;;5096040;28;20024;-70
2023/01/14 01:47:13;;;;;;;9.55;9.05;;;;;;;;;;5096333;28;21285;-69
2023/01/14 01:49:38;;;;;;;9.90;9.40;;;;;;;;;;5097594;28;20024;-69
2023/01/14 01:52:08;;;;;;;9.43;8.93;;;;;;;;;;5097417;28;20038;-69
2023/01/14 01:54:39;;;;;;;8.88;8.48;;;;;;;;;;5098264;28;20032;-69
2023/01/14 01:57:06;;;;;;;9.10;8.70;;;;;;;;;;5101868;28;20032;-68
2023/01/14 01:59:33;;;;;;;9.20;8.80;;;;;;;;;;5094148;28;20024;-69
2023/01/14 02:01:59;;;;;;;9.07;8.68;;;;;;;;;;5099633;28;20026;-68
2023/01/14 02:04:24;;;;;;;8.95;8.55;;;;;;;;;;5105032;28;20102;-70
2023/01/14 02:06:50;;;;;;;9.20;8.80;;;;;;;;;;5098917;28;20034;-69
2023/01/14 02:09:16;;;;;;;9.90;9.40;;;;;;;;;;5094981;28;20027;-69
2023/01/14 02:11:51;;;;;;;9.20;8.80;;;;;;;;;;5101533;28;20020;-70
2023/01/14 02:14:34;;;;;;;9.32;8.82;;;;;;;;;;5097159;28;20034;-70
2023/01/14 02:17:11;;;;;;;9.40;8.90;;;;;;;;;;5099866;28;20024;-70
2023/01/14 02:19:39;;;;;;;9.48;8.98;;;;;;;;;;5097683;28;20012;-69
2023/01/14 02:22:31;;;;;;;10.02;9.52;;;;;;;;;;5095327;28;20050;-69
2023/01/14 02:25:11;;;;;;;10.18;9.63;;;;;;;;;;5090392;28;20044;-69
2023/01/14 02:27:46;;;;;;;9.10;8.70;;;;;;;;;;5095686;28;20059;-69
2023/01/14 02:30:20;;;;;;;8.82;8.43;;;;;;;;;;5100027;28;20028;-69
2023/01/14 02:32:53;;;;;;;8.82;8.43;;;;;;;;;;5095253;28;20035;-68
2023/01/14 02:35:18;;;;;;;9.10;8.70;;;;;;;;;;5097630;28;20077;-70
2023/01/14 02:37:53;;;;;;;9.18;8.77;;;;;;;;;;5094417;28;20435;-70
2023/01/14 02:40:28;;;;;;;8.95;8.55;;;;;;;;;;5096956;28;20094;-70
2023/01/14 02:45:50;;;;;;;9.25;8.80;;;;;;;;;;5099376;28;20034;-70
2023/01/14 02:48:17;;;;;;;9.32;8.82;;;;;;;;;;5093759;28;20047;-68
2023/01/14 02:50:42;;;;;;;9.10;8.70;;;;;;;;;;5096909;28;20028;-69
2023/01/14 02:53:11;;;;;;;9.15;8.75;;;;;;;;;;5099550;28;20057;-69
2023/01/14 02:55:37;;;;;;;9.10;8.70;;;;;;;;;;5097684;28;20041;-69
2023/01/14 02:58:09;;;;;;;9.10;8.70;;;;;;;;;;5073834;28;20092;-69
2023/01/14 03:00:34;;;;;;;8.93;8.52;;;;;;;;;;5096958;28;20011;-69
2023/01/14 03:03:02;;;;;;;9.52;9.02;;;;;;;;;;5091503;28;20035;-69
2023/01/14 03:05:28;;;;;;;10.43;9.82;;;;;;;;;;5099852;28;20110;-69
2023/01/14 03:07:57;;;;;;;9.02;8.63;;;;;;;;;;5104203;28;20074;-69
2023/01/14 03:10:29;;;;;;;9.05;8.65;;;;;;;;;;5096232;28;20020;-68
2023/01/14 03:13:02;;;;;;;9.13;8.73;;;;;;;;;;5076373;28;20027;-70
2023/01/14 03:15:27;;;;;;;9.75;9.25;;;;;;;;;;5080452;28;20022;-70
2023/01/14 03:17:58;;;;;;;9.45;8.95;;;;;;;;;;5101992;28;20024;-69
2023/01/14 03:20:26;;;;;;;8.88;8.48;;;;;;;;;;5094786;28;20409;-69
2023/01/14 03:22:53;;;;;;;9.25;8.85;;;;;;;;;;5090790;28;20099;-68
2023/01/14 03:25:21;;;;;;;9.10;8.70;;;;;;;;;;5091083;28;20023;-69
2023/01/14 03:27:47;;;;;;;9.10;8.70;;;;;;;;;;5086341;28;20020;-69
2023/01/14 03:30:15;;;;;;;9.00;8.60;;;;;;;;;;5081967;28;20024;-69
2023/01/14 03:32:50;;;;;;;9.10;8.70;;;;;;;;;;5092262;28;20024;-69
2023/01/14 03:35:21;;;;;;;9.00;8.60;;;;;;;;;;5083929;28;20077;-69
2023/01/14 03:37:49;;;;;;;9.20;8.73;;;;;;;;;;5104580;28;20019;-69
2023/01/14 03:40:14;;;;;;;9.10;8.70;;;;;;;;;;5100342;28;20035;-69
2023/01/14 03:42:43;;;;;;;8.70;8.30;;;;;;;;;;5104410;28;20383;-69
2023/01/14 03:45:24;;;;;;;8.85;8.45;;;;;;;;;;5087331;28;20028;-69
2023/01/14 03:47:49;;;;;;;9.60;9.10;;;;;;;;;;5097074;28;20024;-69
2023/01/14 03:50:17;;;;;;;8.70;8.30;;;;;;;;;;5101706;28;20382;-70
2023/01/14 03:52:49;;;;;;;8.95;8.55;;;;;;;;;;5084519;28;20024;-70
2023/01/14 03:55:20;;;;;;;9.23;8.82;;;;;;;;;;5086308;28;20402;-69
2023/01/14 03:58:04;;;;;;;9.88;9.38;;;;;;;;;;5097104;28;20030;-70
2023/01/14 04:00:51;;;;;;;8.95;8.55;;;;;;;;;;5106148;28;20391;-70
2023/01/14 04:03:17;;;;;;;9.55;9.05;;;;;;;;;;5101011;28;20028;-69
2023/01/14 04:05:42;;;;;;;9.65;9.15;;;;;;;;;;5098391;28;20016;-70
2023/01/14 04:08:08;;;;;;;9.82;9.32;;;;;;;;;;5096801;28;20024;-70
2023/01/14 04:10:33;;;;;;;9.15;8.75;;;;;;;;;;5103657;28;20016;-70
2023/01/14 04:15:42;;;;;;;8.95;8.55;;;;;;;;;;5101146;28;20023;-70
2023/01/14 04:18:08;;;;;;;9.15;8.75;;;;;;;;;;5100950;28;20020;-70
2023/01/14 04:20:33;;;;;;;9.02;8.63;;;;;;;;;;5101573;28;20024;-69
2023/01/14 04:22:58;;;;;;;9.32;8.93;;;;;;;;;;5083065;28;20027;-69
2023/01/14 04:25:24;;;;;;;9.38;8.93;;;;;;;;;;5102864;28;20022;-70
2023/01/14 04:27:49;;;;;;;10.50;9.90;;;;;;;;;;5100150;28;20020;-70
2023/01/14 04:30:14;;;;;;;9.30;8.90;;;;;;;;;;5097913;28;20036;-71
2023/01/14 04:32:39;;;;;;;9.18;8.77;;;;;;;;;;5084302;28;20020;-69
2023/01/14 04:35:05;;;;;;;9.20;8.80;;;;;;;;;;5082903;28;20099;-70
2023/01/14 04:37:30;;;;;;;9.32;8.90;;;;;;;;;;5095106;28;20073;-70
2023/01/14 04:39:57;;;;;;;9.48;9.02;;;;;;;;;;5102384;28;20016;-69
2023/01/14 04:42:26;;;;;;;8.98;8.57;;;;;;;;;;5101412;28;20024;-69
2023/01/14 04:44:51;;;;;;;9.10;8.70;;;;;;;;;;5103262;28;20020;-69
2023/01/14 04:47:17;;;;;;;9.40;9.00;;;;;;;;;;5090637;28;20039;-69
2023/01/14 04:49:42;;;;;;;9.38;8.93;;;;;;;;;;5099641;28;20023;-69
2023/01/14 04:52:07;;;;;;;9.32;8.93;;;;;;;;;;5099993;28;20011;-69
2023/01/14 04:54:33;;;;;;;9.30;8.85;;;;;;;;;;5100250;28;20121;-68
2023/01/14 04:56:58;;;;;;;9.60;9.10;;;;;;;;;;5093805;28;20024;-70
2023/01/14 04:59:23;;;;;;;8.98;8.57;;;;;;;;;;5103824;28;20023;-70
2023/01/14 05:01:49;;;;;;;9.27;8.88;;;;;;;;;;5101260;28;20016;-69
2023/01/14 05:04:14;;;;;;;9.35;8.95;;;;;;;;;;5100588;28;20024;-70
2023/01/14 05:06:39;;;;;;;9.13;8.73;;;;;;;;;;5095689;28;20023;-69
2023/01/14 05:09:05;;;;;;;9.88;9.38;;;;;;;;;;5098438;28;20438;-70
2023/01/14 05:11:30;;;;;;;9.30;8.90;;;;;;;;;;5099249;28;20024;-70
2023/01/14 05:13:56;;;;;;;10.52;9.93;;;;;;;;;;5103464;28;20114;-70
2023/01/14 05:16:23;;;;;;;9.88;9.38;;;;;;;;;;5099190;28;20059;-69
2023/01/14 05:18:48;;;;;;;9.30;8.90;;;;;;;;;;5090235;28;20012;-70
2023/01/14 05:21:14;;;;;;;9.93;9.43;;;;;;;;;;5095665;28;20491;-69
2023/01/14 05:23:39;;;;;;;9.65;9.15;;;;;;;;;;5096943;28;20012;-69
2023/01/14 05:26:05;;;;;;;9.45;8.95;;;;;;;;;;5087818;28;20035;-69
2023/01/14 05:28:30;;;;;;;9.10;8.70;;;;;;;;;;5102517;28;20038;-70
2023/01/14 05:30:55;;;;;;;9.48;9.02;;;;;;;;;;5097407;28;20534;-69
2023/01/14 05:33:21;;;;;;;9.23;8.82;;;;;;;;;;5102260;28;20032;-70
2023/01/14 05:35:46;;;;;;;9.27;8.88;;;;;;;;;;5100625;28;20020;-70
2023/01/14 05:38:11;;;;;;;11.18;10.50;;;;;;;;;;5081884;28;20532;-69
2023/01/14 05:40:37;;;;;;;9.13;8.73;;;;;;;;;;5095643;28;20031;-70
2023/01/14 05:45:51;;;;;;;9.38;8.98;;;;;;;;;;5101453;28;20031;-70
2023/01/14 05:48:20;;;;;;;9.45;9.02;;;;;;;;;;5097909;28;20073;-69
2023/01/14 05:50:49;;;;;;;9.00;8.60;;;;;;;;;;5091852;28;20647;-69
2023/01/14 05:53:14;;;;;;;9.15;8.75;;;;;;;;;;5102237;28;20070;-68
2023/01/14 05:55:39;;;;;;;10.52;9.93;;;;;;;;;;5092851;28;20478;-69
2023/01/14 05:58:05;;;;;;;10.05;9.55;;;;;;;;;;5095584;28;20027;-69
2023/01/14 06:08:44;;;;;;;9.18;8.73;;;;;;;;;;5095042;28;20026;-67
2023/01/14 06:11:09;;;;;;;9.95;9.45;;;;;;;;;;5096720;28;20111;-68
2023/01/14 06:13:34;;;;;;;9.00;8.60;;;;;;;;;;5079105;28;20027;-67
2023/01/14 06:16:02;;;;;;;9.80;9.30;;;;;;;;;;5094265;28;20024;-68
2023/01/14 06:18:37;;;;;;;9.85;9.35;;;;;;;;;;5075998;28;20032;-68
2023/01/14 06:21:02;;;;;;;9.57;9.07;;;;;;;;;;5092495;28;20125;-68
2023/01/14 06:23:27;;;;;;;9.52;9.02;;;;;;;;;;5103458;28;20070;-67
2023/01/14 06:25:53;;;;;;;9.63;9.13;;;;;;;;;;5096166;28;20466;-68
2023/01/14 06:28:18;;;;;;;8.95;8.55;;;;;;;;;;5093658;28;20016;-65
2023/01/14 06:30:43;;;;;;;8.80;8.40;;;;;;;;;;5093455;28;20050;-65
2023/01/14 06:33:09;;;;;;;10.10;9.57;;;;;;;;;;5097016;28;20391;-65
2023/01/14 06:35:39;;;;;;;9.10;8.70;;;;;;;;;;5096929;28;20456;-66
2023/01/14 06:38:04;;;;;;;9.82;9.32;;;;;;;;;;5091165;28;20498;-67
2023/01/14 06:40:29;;;;;;;10.02;9.52;;;;;;;;;;5085146;28;20021;-72
2023/01/14 06:42:55;;;;;;;9.90;9.40;;;;;;;;;;5069828;28;20038;-73
2023/01/14 06:45:20;;;;;;;9.20;8.80;;;;;;;;;;5091249;28;20105;-70
2023/01/14 06:47:46;;;;;;;9.85;9.35;;;;;;;;;;5093226;28;20022;-68
2023/01/14 06:50:11;;;;;;;10.60;10.00;;;;;;;;;;5088591;28;20117;-65
2023/01/14 06:52:37;;;;;;;9.90;9.40;;;;;;;;;;5098741;28;20067;-66
2023/01/14 06:55:02;;;;;;;11.25;10.55;;;;;;;;;;5088130;28;21017;-68
2023/01/14 06:57:27;;;;;;;9.77;9.32;;;;;;;;;;5090691;28;20166;-67
2023/01/14 06:59:53;;;;;;;9.68;9.18;;;;;;;;;;5094074;28;20459;-69
2023/01/14 07:02:18;;;;;;;9.80;9.30;;;;;;;;;;5086818;28;20020;-69
2023/01/14 07:04:44;;;;;;;10.05;9.55;;;;;;;;;;5093065;28;20418;-67
2023/01/14 07:07:10;;;;;;;9.73;9.23;;;;;;;;;;5082901;28;20150;-67
2023/01/14 07:09:35;;;;;;;11.02;10.43;;;;;;;;;;5082423;28;20035;-68
2023/01/14 07:12:00;;;;;;;10.05;9.52;;;;;;;;;;5094837;28;20525;-67
2023/01/14 07:14:25;;;;;;;9.40;8.90;;;;;;;;;;5099780;28;20028;-67
2023/01/14 07:16:51;;;;;;;10.75;10.15;;;;;;;;;;5087568;28;20056;-67
2023/01/14 07:19:16;;;;;;;10.43;9.82;;;;;;;;;;5089094;28;20016;-67
2023/01/14 07:21:41;;;;;;;10.63;10.02;;;;;;;;;;5092205;28;20019;-66
2023/01/14 07:24:07;;;;;;;10.32;9.73;;;;;;;;;;5090370;28;20491;-67
2023/01/14 07:26:32;;;;;;;9.65;9.15;;;;;;;;;;5091066;28;20047;-68
2023/01/14 07:28:57;;;;;;;9.85;9.35;;;;;;;;;;5094661;28;20028;-66
2023/01/14 07:31:23;;;;;;;9.68;9.18;;;;;;;;;;5093703;28;20016;-67
2023/01/14 07:33:48;;;;;;;10.57;9.98;;;;;;;;;;5097538;28;20058;-67
2023/01/14 07:36:13;;;;;;;10.73;10.13;;;;;;;;;;5067167;28;20040;-67
2023/01/14 07:38:39;;;;;;;10.95;10.30;;;;;;;;;;5085090;28;20020;-68
2023/01/14 07:41:10;;;;;;;11.00;10.35;;;;;;;;;;5088327;28;20729;-65
2023/01/14 07:43:36;;;;;;;9.95;9.45;;;;;;;;;;5096030;28;20035;-66
2023/01/14 07:46:01;;;;;;;10.48;9.88;;;;;;;;;;5090920;28;20014;-68
2023/01/14 07:48:27;;;;;;;10.00;9.50;;;;;;;;;;5100636;28;20057;-68
2023/01/14 07:50:52;;;;;;;9.82;9.32;;;;;;;;;;5097744;28;20051;-67
2023/01/14 07:53:17;;;;;;;9.63;9.13;;;;;;;;;;5095153;28;20042;-68
2023/01/14 07:55:43;;;;;;;9.65;9.15;;;;;;;;;;5082402;28;20031;-68
2023/01/14 07:58:10;;;;;;;10.05;9.55;;;;;;;;;;5091788;28;20459;-68
2023/01/14 08:00:35;;;;;;;10.18;9.63;;;;;;;;;;5075188;28;20441;-68
2023/01/14 08:03:01;;;;;;;10.75;10.15;;;;;;;;;;5075864;28;20019;-67
2023/01/14 08:05:26;;;;;;;9.52;9.05;;;;;;;;;;5089437;28;20026;-69
2023/01/14 08:07:51;;;;;;;9.75;9.25;;;;;;;;;;5097233;28;20422;-69
2023/01/14 08:10:17;;;;;;;10.43;9.82;;;;;;;;;;5094052;28;20058;-68
2023/01/14 08:12:42;;;;;;;10.23;9.63;;;;;;;;;;5095311;28;20103;-70
2023/01/14 08:15:09;;;;;;;9.95;9.43;;;;;;;;;;5096301;28;20036;-69
2023/01/14 08:17:34;;;;;;;10.52;9.93;;;;;;;;;;5095387;28;20011;-70
2023/01/14 08:20:00;;;;;;;10.40;9.80;;;;;;;;;;5099745;28;20040;-69
2023/01/14 08:22:26;;;;;;;9.40;8.90;;;;;;;;;;5100046;28;20028;-68
2023/01/14 08:24:52;;;;;;;10.45;9.85;;;;;;;;;;5089569;28;20029;-68
2023/01/14 08:27:17;;;;;;;10.15;9.65;;;;;;;;;;5086790;28;20016;-67
2023/01/14 08:29:44;;;;;;;10.13;9.60;;;;;;;;;;5095180;28;20114;-69
2023/01/14 08:32:09;;;;;;;9.52;9.02;;;;;;;;;;5091201;28;20070;-68
2023/01/14 08:34:34;;;;;;;10.40;9.80;;;;;;;;;;5100460;28;20036;-70
2023/01/14 08:36:59;;;;;;;9.82;9.32;;;;;;;;;;5103354;28;20016;-68
2023/01/14 08:39:25;;;;;;;10.68;10.07;;;;;;;;;;5100119;28;20073;-67
2023/01/14 08:41:50;;;;;;;9.70;9.20;;;;;;;;;;5092871;28;20495;-68
2023/01/14 08:44:16;;;;;;;10.60;10.00;;;;;;;;;;5088998;28;20036;-67
2023/01/14 08:46:41;;;;;;;10.90;10.25;;;;;;;;;;5091652;28;20475;-69
2023/01/14 08:49:07;;;;;;;9.50;9.00;;;;;;;;;;5092353;28;20028;-68
2023/01/14 08:51:34;;;;;;;9.55;9.05;;;;;;;;;;5095447;28;20532;-69
2023/01/14 08:54:01;;;;;;;9.50;9.00;;;;;;;;;;5097677;28;20056;-68
2023/01/14 08:56:26;;;;;;;10.98;10.32;;;;;;;;;;5095669;28;20386;-69
2023/01/14 08:58:52;;;;;;;10.00;9.50;;;;;;;;;;5090222;28;20028;-69
2023/01/14 09:01:17;;;;;;;9.88;9.38;;;;;;;;;;5091320;28;20028;-67
2023/01/14 09:03:45;;;;;;;9.80;9.30;;;;;;;;;;5077921;28;20077;-69
2023/01/14 09:06:11;;;;;;;11.23;10.52;;;;;;;;;;5085032;28;20478;-69
2023/01/14 09:17:05;;;;;;;9.98;9.48;;;;;;;;;;5081180;28;20039;-68
2023/01/14 09:19:32;;;;;;;10.35;9.75;;;;;;;;;;5085901;28;20387;-69
2023/01/14 09:21:57;;;;;;;11.32;10.63;;;;;;;;;;5067657;28;20024;-69
2023/01/14 09:24:23;;;;;;;9.85;9.35;;;;;;;;;;5091571;28;20027;-69
2023/01/14 09:26:48;;;;;;;10.50;9.90;;;;;;;;;;5089325;28;20024;-69
2023/01/14 09:29:13;;;;;;;9.93;9.43;;;;;;;;;;5079134;28;20099;-69
2023/01/14 09:31:38;;;;;;;11.10;10.45;;;;;;;;;;5077327;28;20106;-69
2023/01/14 09:34:04;;;;;;;9.65;9.15;;;;;;;;;;5086615;28;20458;-68
2023/01/14 09:36:29;;;;;;;10.75;10.15;;;;;;;;;;5086386;28;20020;-66
2023/01/14 09:38:55;;;;;;;11.27;10.57;;;;;;;;;;5093487;28;20024;-66
2023/01/14 09:41:29;;;;;;;9.88;9.38;;;;;;;;;;5095467;28;20383;-64
2023/01/14 09:43:54;;;;;;;10.20;9.60;;;;;;;;;;5095547;28;20064;-64
2023/01/14 09:46:23;;;;;;;9.70;9.20;;;;;;;;;;5095568;28;20495;-64
2023/01/14 09:48:49;;;;;;;9.48;8.98;;;;;;;;;;5099641;28;20016;-63
2023/01/14 09:51:23;;;;;;;10.10;9.55;;;;;;;;;;5079104;28;20024;-70
2023/01/14 09:54:09;;;;;;;10.57;9.98;;;;;;;;;;5092482;28;20134;-66
2023/01/14 09:56:36;;;;;;;10.98;10.30;;;;;;;;;;5094377;28;20141;-65
2023/01/14 09:59:07;;;;;;;10.18;9.63;;;;;;;;;;5096233;28;20028;-67
2023/01/14 10:01:32;;;;;;;9.70;9.20;;;;;;;;;;5090780;28;20038;-64
2023/01/14 10:04:14;;;;;;;10.73;10.13;;;;;;;;;;5092874;28;20020;-66
2023/01/14 10:06:41;;;;;;;9.63;9.13;;;;;;;;;;5095101;28;20040;-64
2023/01/14 10:09:11;;;;;;;10.38;9.77;;;;;;;;;;5100431;28;20027;-64
2023/01/14 10:11:40;;;;;;;9.43;8.95;;;;;;;;;;5092550;28;20020;-65
2023/01/14 10:14:27;;;;;;;9.52;9.02;;;;;;;;;;5095597;28;20028;-65
2023/01/14 10:16:56;;;;;;;9.82;9.32;;;;;;;;;;5098229;28;20016;-66
2023/01/14 10:19:27;;;;;;;9.85;9.35;;;;;;;;;;5099531;28;20387;-66
2023/01/14 10:22:03;;;;;;;9.40;8.90;;;;;;;;;;5100840;28;20080;-65
2023/01/14 10:24:28;;;;;;;9.50;9.00;;;;;;;;;;5091544;28;20128;-65
2023/01/14 10:26:55;;;;;;;10.00;9.48;;;;;;;;;;5086513;28;20058;-66
2023/01/14 10:29:21;;;;;;;10.77;10.18;;;;;;;;;;5100243;28;20023;-64
2023/01/14 10:31:49;;;;;;;9.98;9.48;;;;;;;;;;5104850;28;20077;-65
2023/01/14 10:34:18;;;;;;;9.75;9.25;;;;;;;;;;5103158;28;20031;-64
2023/01/14 10:36:43;;;;;;;9.38;8.88;;;;;;;;;;5098824;28;20098;-64
2023/01/14 10:39:11;;;;;;;9.60;9.10;;;;;;;;;;5099947;28;20047;-65
2023/01/14 10:42:11;;;;;;;9.77;9.27;;;;;;;;;;5085437;28;20157;-65
2023/01/14 10:44:28;;;;;;;9.25;8.80;;;;;;;;;;5089634;28;20032;-66
2023/01/14 10:46:56;;;;;;;10.77;10.15;;;;;;;;;;5101320;28;20023;-66
2023/01/14 10:49:23;;;;;;;11.60;10.90;;;;;;;;;;5092666;28;20052;-66
2023/01/14 10:51:50;;;;;;;9.77;9.27;;;;;;;;;;5092792;28;20467;-66
2023/01/14 10:54:17;;;;;;;10.85;10.23;;;;;;;;;;5089157;28;20044;-64
2023/01/14 10:56:45;;;;;;;9.70;9.20;;;;;;;;;;5094643;28;20050;-63
2023/01/14 10:59:29;;;;;;;12.60;11.73;;;;;;;;;;5092480;28;20044;-64
2023/01/14 11:01:54;;;;;;;10.07;9.50;;;;;;;;;;5094335;28;20023;-65
2023/01/14 11:04:22;;;;;;;9.50;9.00;;;;;;;;;;5100283;28;20273;-65
2023/01/14 11:06:47;;;;;;;9.73;9.23;;;;;;;;;;5094942;28;20119;-65
2023/01/14 11:09:21;;;;;;;10.60;10.00;;;;;;;;;;5100763;28;20554;-65
2023/01/14 11:11:48;;;;;;;10.18;9.60;;;;;;;;;;5094139;28;20024;-64
2023/01/14 11:14:17;;;;;;;9.40;8.90;;;;;;;;;;5088890;28;20039;-64
2023/01/14 11:16:43;;;;;;;9.38;8.90;;;;;;;;;;5088415;28;20164;-66
2023/01/14 11:19:14;;;;;;;9.10;8.70;;;;;;;;;;5096277;28;20128;-66
2023/01/14 11:21:41;;;;;;;9.15;8.75;;;;;;;;;;5088404;28;20019;-65
2023/01/14 11:24:12;;;;;;;11.07;10.40;;;;;;;;;;5093684;28;20475;-66
2023/01/14 11:26:38;;;;;;;10.18;9.63;;;;;;;;;;5089626;28;20111;-66
2023/01/14 11:29:10;;;;;;;9.75;9.25;;;;;;;;;;5092176;28;20043;-65
2023/01/14 11:31:38;;;;;;;9.55;9.05;;;;;;;;;;5088090;28;20050;-69
2023/01/14 11:34:03;;;;;;;11.30;10.60;;;;;;;;;;5063354;28;20066;-69
2023/01/14 11:36:29;;;;;;;9.30;8.90;;;;;;;;;;5080718;28;20031;-67
2023/01/14 11:38:59;;;;;;;9.82;9.32;;;;;;;;;;5083021;28;20052;-67
2023/01/14 11:41:32;;;;;;;9.60;9.10;;;;;;;;;;5088237;28;20027;-70
2023/01/14 11:44:09;;;;;;;10.57;9.98;;;;;;;;;;5085760;28;20023;-72
2023/01/14 11:46:36;;;;;;;9.80;9.30;;;;;;;;;;5087240;28;20479;-70
2023/01/14 11:49:12;;;;;;;9.95;9.43;;;;;;;;;;5089293;28;20016;-68
2023/01/14 11:51:40;;;;;;;8.98;8.57;;;;;;;;;;5075894;28;20022;-69
2023/01/14 11:54:14;;;;;;;9.82;9.32;;;;;;;;;;5099834;28;20582;-71
2023/01/14 11:56:40;;;;;;;9.50;9.00;;;;;;;;;;5096381;28;20028;-69
2023/01/14 11:59:23;;;;;;;9.80;9.30;;;;;;;;;;5093280;28;20020;-67
2023/01/14 12:01:51;;;;;;;9.47;8.97;;;;;;;;;;5096529;28;20099;-68
2023/01/14 12:04:19;;;;;;;9.70;9.20;;;;;;;;;;5097922;28;20280;-67
2023/01/14 12:06:47;;;;;;;9.82;9.32;;;;;;;;;;5094125;28;20016;-67
2023/01/14 12:09:32;;;;;;;9.80;9.30;;;;;;;;;;5092516;28;20036;-67
2023/01/14 12:12:04;;;;;;;8.60;8.20;;;;;;;;;;5077798;28;20067;-67
2023/01/14 12:17:29;;;;;;;10.13;9.52;;;;;;;;;;5090484;28;20091;-67
2023/01/14 12:19:59;;;;;;;8.98;8.57;;;;;;;;;;5093635;28;20477;-67
2023/01/14 12:22:28;;;;;;;9.68;9.18;;;;;;;;;;5099352;28;20018;-67
2023/01/14 12:24:57;;;;;;;9.50;9.00;;;;;;;;;;5088586;28;20479;-67
2023/01/14 12:27:41;;;;;;;9.65;9.15;;;;;;;;;;5090331;28;20023;-66
2023/01/14 12:30:27;;;;;;;9.88;9.38;;;;;;;;;;5100577;28;20026;-67
2023/01/14 12:33:11;;;;;;;9.68;9.18;;;;;;;;;;5047119;28;20040;-67
2023/01/14 12:35:51;;;;;;;9.40;8.90;;;;;;;;;;5105913;28;20020;-67
2023/01/14 12:46:36;;;;;;;9.80;9.30;;;;;;;;;;5082146;28;20039;-66
2023/01/14 12:49:02;;;;;;;10.35;9.75;;;;;;;;;;5079208;28;20395;-66
2023/01/14 12:51:29;;;;;;;9.75;9.25;;;;;;;;;;5098019;28;20429;-67
2023/01/14 12:53:57;;;;;;;9.60;9.10;;;;;;;;;;5098652;28;20048;-67
2023/01/14 12:56:32;;;;;;;9.68;9.18;;;;;;;;;;5102869;28;20023;-66
2023/01/14 12:59:06;;;;;;;9.45;8.95;;;;;;;;;;5100180;28;20462;-68
2023/01/14 13:01:40;;;;;;;8.98;8.57;;;;;;;;;;5094556;28;20016;-67
2023/01/14 13:04:14;;;;;;;8.73;8.32;;;;;;;;;;5098962;28;20398;-66
2023/01/14 13:06:39;;;;;;;10.13;9.52;;;;;;;;;;5096099;28;20139;-66
2023/01/14 13:09:07;;;;;;;9.82;9.32;;;;;;;;;;5092489;28;20064;-69
2023/01/14 13:11:40;;;;;;;10.30;9.70;;;;;;;;;;5094780;28;20486;-65
2023/01/14 13:14:18;;;;;;;8.90;8.50;;;;;;;;;;5091991;28;20107;-66
2023/01/14 13:16:44;;;;;;;9.32;8.85;;;;;;;;;;5075569;28;20032;-66
2023/01/14 13:19:24;;;;;;;10.05;9.50;;;;;;;;;;5089705;28;20072;-66
2023/01/14 13:21:50;;;;;;;11.00;10.30;;;;;;;;;;5098293;28;20091;-66
2023/01/14 13:24:30;;;;;;;9.20;8.70;;;;;;;;;;5103293;28;20021;-68
2023/01/14 13:26:56;;;;;;;9.50;9.00;;;;;;;;;;5100232;28;20088;-69
2023/01/14 13:29:23;;;;;;;9.05;8.65;;;;;;;;;;5097278;28;20019;-70
2023/01/14 13:31:49;;;;;;;10.23;9.63;;;;;;;;;;5072296;28;20016;-69
2023/01/14 13:34:33;;;;;;;10.23;9.63;;;;;;;;;;5089124;28;20033;-68
2023/01/14 13:37:04;;;;;;;10.57;9.98;;;;;;;;;;5092616;28;20047;-67
2023/01/14 13:39:31;;;;;;;9.40;8.90;;;;;;;;;;5075399;28;20028;-71
2023/01/14 13:41:57;;;;;;;9.45;8.95;;;;;;;;;;5080827;28;20028;-63
2023/01/14 13:44:27;;;;;;;8.90;8.50;;;;;;;;;;5098796;28;20016;-68
2023/01/14 13:47:00;;;;;;;9.00;8.60;;;;;;;;;;5091134;28;20020;-65
2023/01/14 13:49:25;;;;;;;9.07;8.68;;;;;;;;;;5094436;28;20020;-66
2023/01/14 13:51:51;;;;;;;9.75;9.25;;;;;;;;;;5101781;28;20379;-67
2023/01/14 13:54:24;;;;;;;9.30;8.90;;;;;;;;;;5080962;28;20044;-66
2023/01/14 13:56:50;;;;;;;9.75;9.25;;;;;;;;;;5095066;28;20065;-67
2023/01/14 13:59:25;;;;;;;9.13;8.73;;;;;;;;;;5100405;28;20019;-65
2023/01/14 14:01:50;;;;;;;9.68;9.18;;;;;;;;;;5098208;28;20499;-66
2023/01/14 14:04:34;;;;;;;9.63;9.13;;;;;;;;;;5098455;28;20034;-66
2023/01/14 14:07:00;;;;;;;9.95;9.45;;;;;;;;;;5086557;28;20015;-66
2023/01/14 14:09:31;;;;;;;9.52;9.02;;;;;;;;;;5096924;28;20659;-65
2023/01/14 14:11:56;;;;;;;10.45;9.85;;;;;;;;;;5095609;28;20042;-65
2023/01/14 14:14:36;;;;;;;9.55;9.05;;;;;;;;;;5099368;28;20428;-67
2023/01/14 14:17:03;;;;;;;9.55;9.05;;;;;;;;;;5099091;28;20108;-67
2023/01/14 14:19:28;;;;;;;9.15;8.75;;;;;;;;;;5098067;28;20085;-66
2023/01/14 14:22:00;;;;;;;9.63;9.13;;;;;;;;;;5104751;28;20074;-66
2023/01/14 14:24:48;;;;;;;9.68;9.18;;;;;;;;;;5097090;28;20031;-66
2023/01/14 14:27:16;;;;;;;9.48;8.98;;;;;;;;;;5082724;28;20165;-67
2023/01/14 14:29:43;;;;;;;9.13;8.73;;;;;;;;;;5092326;28;20506;-66
2023/01/14 14:32:17;;;;;;;9.68;9.18;;;;;;;;;;5097254;28;20016;-67
2023/01/14 14:34:43;;;;;;;9.68;9.18;;;;;;;;;;5104485;28;20082;-65
2023/01/14 14:37:33;;;;;;;9.00;8.60;;;;;;;;;;5101981;28;20480;-67
2023/01/14 14:39:58;;;;;;;9.40;8.90;;;;;;;;;;5101010;28;20020;-66
2023/01/14 14:42:24;;;;;;;9.23;8.75;;;;;;;;;;5103723;28;20021;-67
2023/01/14 14:44:54;;;;;;;9.60;9.10;;;;;;;;;;5102269;28;20054;-67
2023/01/14 14:47:19;;;;;;;8.80;8.40;;;;;;;;;;5097206;28;20016;-66
2023/01/14 14:49:45;;;;;;;9.38;8.90;;;;;;;;;;5099671;28;20475;-66
2023/01/14 14:52:16;;;;;;;8.98;8.57;;;;;;;;;;5102770;28;20052;-65
2023/01/14 14:54:42;;;;;;;11.52;10.82;;;;;;;;;;5095629;28;20074;-66
2023/01/14 14:57:11;;;;;;;9.55;9.05;;;;;;;;;;5095900;28;20028;-65
2023/01/14 14:59:38;;;;;;;9.50;9.00;;;;;;;;;;5100729;28;20057;-66
2023/01/14 15:02:19;;;;;;;8.80;8.40;;;;;;;;;;5084623;28;20135;-66
2023/01/14 15:04:45;;;;;;;9.00;8.60;;;;;;;;;;5098060;28;20055;-67
2023/01/14 15:07:10;;;;;;;9.35;8.85;;;;;;;;;;5082655;28;20024;-65
2023/01/14 15:09:36;;;;;;;8.88;8.48;;;;;;;;;;5095860;28;20546;-66
2023/01/14 15:12:02;;;;;;;9.65;9.15;;;;;;;;;;5104375;28;20055;-67
2023/01/14 15:14:31;;;;;;;9.45;8.95;;;;;;;;;;5099581;28;20032;-66
2023/01/14 15:16:57;;;;;;;9.15;8.75;;;;;;;;;;5081245;28;20016;-66
2023/01/14 15:19:23;;;;;;;9.13;8.68;;;;;;;;;;5083093;28;20511;-66